Time;durP1;ratioP1;P1;durP2;ratioP2;P2;SDS_P1;SDS_P2;PMS_P1;PMS_P2;Temp;Humidity;BMP_temperature;BMP_pressure;BME280_temperature;BME280_humidity;BME280_pressure;Samples;Min_cycle;Max_cycle;Signal;HPM_P1;HPM_P2
2022/02/04 00:01:13;;;;;;;17.07;14.03;;;6.20;99.90;;;;;;4974365;28;20485;-65
2022/02/04 00:26:03;;;;;;;17.13;12.60;;;6.70;99.90;;;;;;4981356;28;20440;-65
2022/02/04 00:28:11;;;;;;;13.97;12.43;;;6.80;99.90;;;;;;4969794;28;20551;-65
2022/02/04 00:30:42;;;;;;;13.17;11.80;;;6.80;99.90;;;;;;4986911;28;20455;-65
2022/02/04 00:33:10;;;;;;;12.40;11.13;;;6.80;99.90;;;;;;4986191;28;20955;-65
2022/02/04 00:35:53;;;;;;;13.63;12.20;;;6.80;99.90;;;;;;4978448;28;20453;-65
2022/02/04 00:38:30;;;;;;;14.50;13.00;;;6.80;99.90;;;;;;4975433;28;20509;-65
2022/02/04 00:41:03;;;;;;;13.50;11.60;;;6.90;99.90;;;;;;4973400;28;20427;-65
2022/02/04 00:43:30;;;;;;;13.93;12.43;;;6.90;99.90;;;;;;4989506;28;20485;-65
2022/02/04 00:46:11;;;;;;;15.17;12.40;;;7.00;99.90;;;;;;4987810;28;20434;-65
2022/02/04 00:51:26;;;;;;;12.90;11.63;;;7.00;99.90;;;;;;4983161;28;20439;-65
2022/02/04 00:56:30;;;;;;;15.83;14.07;;;7.00;99.90;;;;;;4975285;28;20447;-65
2022/02/04 01:26:08;;;;;;;12.40;11.10;;;7.00;99.90;;;;;;4976508;28;20474;-65
2022/02/04 01:28:37;;;;;;;17.93;12.50;;;7.00;99.90;;;;;;4983392;28;20955;-65
2022/02/04 01:31:03;;;;;;;13.47;12.13;;;7.00;99.90;;;;;;4994616;28;20442;-65
2022/02/04 01:33:30;;;;;;;13.43;12.13;;;7.10;99.90;;;;;;4984022;28;20988;-65
2022/02/04 01:35:55;;;;;;;13.13;11.40;;;7.10;99.90;;;;;;4985378;28;20431;-65
2022/02/04 01:38:27;;;;;;;12.83;11.53;;;7.10;99.90;;;;;;4987564;28;20430;-65
2022/02/04 01:40:53;;;;;;;15.70;11.93;;;7.10;99.90;;;;;;4976972;28;20181;-65
2022/02/04 01:43:21;;;;;;;13.73;12.40;;;7.10;99.90;;;;;;4979318;28;20444;-65
2022/02/04 01:45:54;;;;;;;15.20;11.97;;;7.00;99.90;;;;;;4975149;28;20427;-65
2022/02/04 01:48:20;;;;;;;13.57;12.37;;;6.90;99.90;;;;;;4981757;28;21043;-65
2022/02/04 01:50:47;;;;;;;15.27;13.50;;;6.80;99.90;;;;;;4977620;28;20447;-65
2022/02/04 01:53:14;;;;;;;14.10;12.37;;;6.80;99.90;;;;;;4992558;28;20459;-65
2022/02/04 01:55:42;;;;;;;12.47;11.23;;;6.90;99.90;;;;;;4984489;28;20442;-65
2022/02/04 01:58:08;;;;;;;12.80;11.47;;;6.80;99.90;;;;;;4983656;28;21030;-65
2022/02/04 02:00:34;;;;;;;14.57;13.00;;;6.70;99.90;;;;;;4975475;28;20953;-65
2022/02/04 02:02:59;;;;;;;12.30;11.10;;;6.70;99.90;;;;;;4979668;28;20512;-65
2022/02/04 02:05:25;;;;;;;13.10;11.77;;;6.70;99.90;;;;;;4984579;28;20208;-65
2022/02/04 02:07:50;;;;;;;12.83;11.63;;;6.70;99.90;;;;;;4978368;28;20177;-65
2022/02/04 02:10:18;;;;;;;14.20;12.27;;;6.60;99.90;;;;;;4975374;28;20236;-65
2022/02/04 02:12:57;;;;;;;13.50;11.47;;;6.60;99.90;;;;;;4979555;28;20184;-65
2022/02/04 02:15:34;;;;;;;12.47;11.23;;;6.50;99.90;;;;;;4961172;28;20431;-65
2022/02/04 02:45:31;;;;;;;9.97;8.20;;;6.60;99.90;;;;;;4977219;28;20930;-65
2022/02/04 02:51:04;;;;;;;16.47;15.00;;;6.60;99.90;;;;;;4988342;28;20462;-65
2022/02/04 02:56:31;;;;;;;9.37;8.57;;;6.60;99.90;;;;;;4981323;28;20435;-65
2022/02/04 02:59:04;;;;;;;10.07;9.13;;;6.50;99.90;;;;;;4980143;28;20441;-65
2022/02/04 03:01:30;;;;;;;9.23;8.37;;;6.60;99.90;;;;;;4990209;28;20470;-65
2022/02/04 03:03:58;;;;;;;9.57;8.67;;;6.50;99.90;;;;;;4976244;28;20939;-65
2022/02/04 03:06:23;;;;;;;10.77;8.93;;;6.50;99.90;;;;;;4977900;28;20550;-65
2022/02/04 03:08:49;;;;;;;8.17;7.20;;;6.60;99.90;;;;;;4976097;28;20455;-65
2022/02/04 03:11:15;;;;;;;10.53;9.20;;;6.60;99.90;;;;;;4974719;28;20638;-65
2022/02/04 03:13:43;;;;;;;9.23;8.33;;;6.60;99.90;;;;;;4984254;28;20457;-65
2022/02/04 03:16:13;;;;;;;9.97;8.97;;;6.60;99.90;;;;;;4973274;28;20243;-65
2022/02/04 03:18:42;;;;;;;9.03;8.13;;;6.60;99.90;;;;;;4973700;28;20435;-65
2022/02/04 03:21:13;;;;;;;8.20;7.47;;;6.60;99.90;;;;;;4977436;28;20435;-65
2022/02/04 03:23:45;;;;;;;9.80;8.80;;;6.70;99.90;;;;;;4973601;28;20450;-64
2022/02/04 03:28:55;;;;;;;9.63;8.70;;;6.70;99.90;;;;;;4991640;28;20985;-65
2022/02/04 03:31:21;;;;;;;9.00;8.10;;;6.70;99.90;;;;;;4986011;28;20454;-65
2022/02/04 03:33:48;;;;;;;8.20;7.50;;;6.80;99.90;;;;;;4976536;28;20657;-65
2022/02/04 03:36:14;;;;;;;8.30;7.60;;;6.90;99.90;;;;;;4990511;28;20431;-65
2022/02/04 03:38:39;;;;;;;8.33;7.53;;;7.00;99.90;;;;;;4984309;28;20438;-65
2022/02/04 03:41:07;;;;;;;9.10;8.30;;;7.00;99.90;;;;;;4980108;28;20639;-65
2022/02/04 03:43:33;;;;;;;8.37;7.63;;;7.00;99.90;;;;;;4974259;28;20196;-64
2022/02/04 03:45:58;;;;;;;9.10;8.17;;;7.10;99.90;;;;;;4988831;28;20812;-65
2022/02/04 03:48:24;;;;;;;8.10;7.27;;;7.00;99.90;;;;;;4977287;28;20188;-65
2022/02/04 03:50:49;;;;;;;8.17;7.13;;;7.00;99.90;;;;;;4973479;28;20181;-65
2022/02/04 03:53:16;;;;;;;8.07;7.33;;;6.90;99.90;;;;;;4974431;28;20741;-65
2022/02/04 03:55:42;;;;;;;7.93;7.20;;;6.90;99.90;;;;;;4977629;28;20266;-65
2022/02/04 03:58:09;;;;;;;8.67;7.83;;;7.00;99.90;;;;;;4990848;28;20437;-65
2022/02/04 04:00:34;;;;;;;8.57;7.77;;;7.00;99.90;;;;;;4987471;28;20529;-65
2022/02/04 04:03:00;;;;;;;9.43;8.53;;;7.00;99.90;;;;;;4988514;28;20874;-65
2022/02/04 04:05:27;;;;;;;8.20;7.40;;;7.00;99.90;;;;;;4989629;28;20179;-65
2022/02/04 04:07:53;;;;;;;9.97;8.10;;;6.90;99.90;;;;;;4980711;28;20180;-66
2022/02/04 04:10:24;;;;;;;8.30;7.50;;;6.80;99.90;;;;;;4982881;28;20470;-64
2022/02/04 04:12:51;;;;;;;8.07;7.27;;;6.70;99.90;;;;;;4981891;28;20188;-65
2022/02/04 04:15:17;;;;;;;7.80;7.00;;;6.60;99.90;;;;;;4974600;28;20921;-65
2022/02/04 04:17:45;;;;;;;7.90;7.10;;;6.60;99.90;;;;;;4974575;28;20930;-65
2022/02/04 04:20:16;;;;;;;8.20;7.40;;;6.60;99.90;;;;;;4978033;28;20544;-66
2022/02/04 04:22:42;;;;;;;8.10;7.30;;;6.60;99.90;;;;;;4990056;28;20530;-66
2022/02/04 04:25:09;;;;;;;10.20;7.97;;;6.60;99.90;;;;;;4974305;28;20439;-65
2022/02/04 04:27:35;;;;;;;7.80;7.10;;;6.60;99.90;;;;;;4979911;28;20427;-66
2022/02/04 04:30:01;;;;;;;8.97;8.17;;;6.50;99.90;;;;;;4985507;28;20828;-65
2022/02/04 04:32:27;;;;;;;10.00;8.93;;;6.40;99.90;;;;;;4975293;28;20249;-65
2022/02/04 04:34:53;;;;;;;7.87;7.13;;;6.50;99.90;;;;;;4987449;28;20431;-65
2022/02/04 04:37:18;;;;;;;7.93;7.13;;;6.40;99.90;;;;;;4979429;28;20191;-65
2022/02/04 04:40:36;;;;;;;8.50;7.80;;;6.40;99.90;;;;;;4976052;28;20191;-65
2022/02/04 04:42:40;;;;;;;6.83;6.23;;;6.50;99.90;;;;;;4977730;28;20575;-66
2022/02/04 05:26:24;;;;;;;10.27;8.87;;;6.20;99.90;;;;;;4990339;28;20857;-65
2022/02/04 05:31:18;;;;;;;8.40;7.60;;;6.30;99.90;;;;;;4982925;28;20937;-65
2022/02/04 05:33:44;;;;;;;7.93;7.23;;;6.30;99.90;;;;;;4978582;28;20518;-65
2022/02/04 05:36:11;;;;;;;9.30;8.40;;;6.30;99.90;;;;;;4979860;28;20180;-65
2022/02/04 05:38:38;;;;;;;9.07;8.17;;;6.20;99.90;;;;;;4985524;28;20202;-65
2022/02/04 05:41:06;;;;;;;9.17;7.83;;;6.10;99.90;;;;;;4989949;28;20431;-65
2022/02/04 05:43:35;;;;;;;9.20;8.30;;;6.10;99.90;;;;;;4984095;28;20513;-65
2022/02/04 05:46:06;;;;;;;9.60;8.67;;;6.10;99.90;;;;;;4991950;28;20515;-65
2022/02/04 05:48:34;;;;;;;8.23;7.43;;;6.00;99.90;;;;;;4983718;28;20534;-65
2022/02/04 05:51:21;;;;;;;9.37;8.47;;;6.00;99.90;;;;;;4991823;28;20435;-66
2022/02/04 05:59:14;;;;;;;9.33;8.30;;;6.00;99.90;;;;;;4987001;28;20470;-65
2022/02/04 06:06:54;;;;;;;9.67;8.67;;;6.10;99.90;;;;;;4975881;28;20191;-64
2022/02/04 06:12:43;;;;;;;9.43;8.27;;;6.10;99.90;;;;;;4974863;28;20435;-65
2022/02/04 06:22:05;;;;;;;8.40;7.60;;;6.10;99.90;;;;;;4987334;28;20917;-65
2022/02/04 06:23:24;;;;;;;14.93;7.37;;;6.00;99.90;;;;;;4977618;28;20478;-64
2022/02/04 06:25:50;;;;;;;10.07;9.07;;;5.90;99.90;;;;;;4976647;28;20527;-65
2022/02/04 06:28:16;;;;;;;9.77;8.70;;;5.90;99.90;;;;;;4993689;28;20690;-65
2022/02/04 06:30:43;;;;;;;14.50;8.57;;;5.90;99.90;;;;;;4984226;28;20208;-65
2022/02/04 06:33:08;;;;;;;10.10;9.07;;;5.80;99.90;;;;;;4974267;28;20553;-65
2022/02/04 06:35:35;;;;;;;8.50;7.70;;;5.80;99.90;;;;;;4992313;28;20868;-65
2022/02/04 06:38:02;;;;;;;10.00;9.00;;;5.90;99.90;;;;;;4975621;28;20257;-65
2022/02/04 06:40:28;;;;;;;10.00;7.90;;;6.00;99.90;;;;;;4983652;28;20494;-65
2022/02/04 06:42:55;;;;;;;9.47;8.40;;;6.10;99.90;;;;;;4975629;28;20509;-65
2022/02/04 06:45:22;;;;;;;8.70;7.90;;;6.10;99.90;;;;;;4986006;28;20510;-65
2022/02/04 06:47:47;;;;;;;9.77;8.77;;;6.10;99.90;;;;;;4980567;28;20778;-66
2022/02/04 06:50:14;;;;;;;9.90;8.90;;;6.10;99.90;;;;;;4999895;28;20466;-65
2022/02/04 06:52:42;;;;;;;9.43;8.50;;;6.10;99.90;;;;;;4977161;28;20291;-65
2022/02/04 06:55:07;;;;;;;10.07;7.90;;;6.10;99.90;;;;;;4986604;28;20940;-64
2022/02/04 06:57:33;;;;;;;9.43;8.30;;;6.10;99.90;;;;;;4976968;28;20423;-65
2022/02/04 06:59:59;;;;;;;8.80;7.63;;;6.10;99.90;;;;;;4980341;28;20188;-65
2022/02/04 07:02:27;;;;;;;10.63;9.37;;;6.00;99.90;;;;;;4975887;28;20499;-66
2022/02/04 07:04:52;;;;;;;9.90;7.83;;;6.00;99.90;;;;;;4983071;28;20188;-65
2022/02/04 07:07:19;;;;;;;15.00;10.53;;;6.00;99.90;;;;;;4978048;28;20460;-65
2022/02/04 07:14:51;;;;;;;12.33;9.07;;;5.80;99.90;;;;;;4981975;28;20663;-65
2022/02/04 07:17:29;;;;;;;12.20;10.40;;;5.80;99.90;;;;;;4982151;28;20437;-65
2022/02/04 07:19:56;;;;;;;10.40;8.50;;;5.80;99.90;;;;;;4974581;28;20463;-66
2022/02/04 07:22:30;;;;;;;13.13;10.90;;;5.80;99.90;;;;;;4982223;28;20439;-65
2022/02/04 07:24:59;;;;;;;9.37;8.10;;;5.80;99.90;;;;;;4975996;28;20438;-66
2022/02/04 07:27:28;;;;;;;9.73;8.50;;;5.80;99.90;;;;;;4977184;28;20447;-64
2022/02/04 07:29:54;;;;;;;10.63;8.90;;;5.70;99.90;;;;;;4985221;28;20503;-65
2022/02/04 07:32:42;;;;;;;11.40;9.30;;;5.70;99.90;;;;;;4974266;28;20790;-65
2022/02/04 07:40:55;;;;;;;10.70;9.30;;;5.70;99.90;;;;;;4979600;28;20449;-64
2022/02/04 07:43:23;;;;;;;10.30;9.30;;;5.80;99.90;;;;;;4981738;28;20474;-65
2022/02/04 07:45:49;;;;;;;11.03;9.50;;;5.70;99.90;;;;;;4982759;28;20537;-66
2022/02/04 07:48:15;;;;;;;12.33;9.50;;;5.70;99.90;;;;;;4970306;28;20495;-66
2022/02/04 07:50:43;;;;;;;18.87;12.10;;;5.70;99.90;;;;;;4952314;28;20215;-68
2022/02/04 07:53:08;;;;;;;13.27;11.53;;;5.70;99.90;;;;;;4971477;28;20188;-67
2022/02/04 07:55:34;;;;;;;11.40;9.97;;;5.70;99.90;;;;;;4987960;28;20440;-68
2022/02/04 07:58:00;;;;;;;11.97;10.13;;;5.80;99.90;;;;;;4980583;28;20164;-67
2022/02/04 08:00:27;;;;;;;12.70;11.33;;;5.80;99.90;;;;;;4986356;28;20168;-67
2022/02/04 08:02:52;;;;;;;13.63;11.50;;;5.80;99.90;;;;;;4973230;28;20227;-67
2022/02/04 08:05:19;;;;;;;14.37;11.67;;;5.80;99.90;;;;;;4981149;28;20444;-66
2022/02/04 08:10:41;;;;;;;16.33;11.47;;;5.80;99.90;;;;;;4980887;28;20549;-64
2022/02/04 08:16:16;;;;;;;15.10;12.13;;;5.90;99.90;;;;;;4977896;28;20442;-68
2022/02/04 08:24:05;;;;;;;12.50;11.10;;;5.80;99.90;;;;;;4977173;28;20283;-64
2022/02/04 08:46:48;;;;;;;9.03;8.13;;;9.00;99.90;;;;;;4972820;28;20216;-65
2022/02/04 08:55:27;;;;;;;8.30;7.50;;;11.20;99.90;;;;;;4986015;28;20517;-65
2022/02/04 09:00:46;;;;;;;7.93;7.13;;;12.30;99.90;;;;;;4987271;28;20817;-65
2022/02/04 09:03:25;;;;;;;9.83;8.90;;;12.70;99.90;;;;;;4980210;28;20464;-66
2022/02/04 09:06:03;;;;;;;8.00;7.30;;;13.20;99.90;;;;;;4981113;28;20476;-65
2022/02/04 09:08:31;;;;;;;9.97;7.40;;;13.00;99.90;;;;;;4978758;28;20438;-65
2022/02/04 09:11:02;;;;;;;8.10;6.90;;;12.20;99.90;;;;;;4986065;28;20459;-64
2022/02/04 09:19:02;;;;;;;9.37;8.47;;;9.20;99.90;;;;;;4980445;28;20482;-64
2022/02/04 09:24:09;;;;;;;10.77;9.07;;;8.50;99.90;;;;;;4981978;28;20455;-64
2022/02/04 09:26:35;;;;;;;8.67;7.50;;;8.80;99.90;;;;;;4976923;28;20474;-64
2022/02/04 09:29:01;;;;;;;7.03;6.33;;;8.90;99.90;;;;;;4973987;28;20970;-64
2022/02/04 09:31:27;;;;;;;7.37;6.63;;;8.60;99.90;;;;;;4974881;28;20431;-64
2022/02/04 09:33:53;;;;;;;8.23;5.90;;;8.50;99.90;;;;;;4979231;28;20506;-63
2022/02/04 09:36:18;;;;;;;7.70;6.40;;;8.50;99.90;;;;;;4971836;28;20263;-64
2022/02/04 09:38:44;;;;;;;5.73;5.23;;;8.70;99.90;;;;;;4970863;28;21538;-64
2022/02/04 09:41:09;;;;;;;6.13;5.63;;;8.80;99.90;;;;;;4976436;28;20190;-64
2022/02/04 09:43:35;;;;;;;5.10;4.60;;;8.90;99.90;;;;;;4984817;28;20188;-64
2022/02/04 09:46:01;;;;;;;7.30;5.27;;;8.80;99.90;;;;;;4973280;28;20276;-64
2022/02/04 09:48:28;;;;;;;6.20;5.00;;;9.00;99.90;;;;;;4982984;28;20538;-65
2022/02/04 09:50:56;;;;;;;6.57;5.87;;;9.20;99.90;;;;;;4973703;28;20199;-64
2022/02/04 10:10:34;;;;;;;4.30;4.00;;;9.30;99.90;;;;;;4975437;28;20470;-65
2022/02/04 10:13:39;;;;;;;6.17;4.10;;;9.00;99.90;;;;;;4978824;28;20454;-65
2022/02/04 10:22:02;;;;;;;4.57;4.03;;;9.00;99.90;;;;;;4968528;28;20790;-65
2022/02/04 10:24:29;;;;;;;4.33;3.93;;;8.80;99.90;;;;;;4984155;28;20454;-65
2022/02/04 10:27:18;;;;;;;4.80;4.30;;;8.80;99.90;;;;;;4981318;28;20436;-65
2022/02/04 10:29:55;;;;;;;4.37;3.93;;;8.90;99.90;;;;;;4978898;28;20451;-65
2022/02/04 10:32:24;;;;;;;4.60;3.83;;;9.10;99.90;;;;;;4979920;28;20436;-64
2022/02/04 10:35:13;;;;;;;3.67;3.37;;;9.30;99.90;;;;;;4976559;28;20435;-64
2022/02/04 10:37:54;;;;;;;3.53;3.23;;;9.20;99.90;;;;;;4984133;28;20504;-64
2022/02/04 10:40:40;;;;;;;3.90;3.50;;;8.90;99.90;;;;;;4975160;28;20435;-64
2022/02/04 10:43:24;;;;;;;4.03;3.03;;;8.60;99.90;;;;;;4984032;28;20458;-64
2022/02/04 10:46:46;;;;;;;3.73;2.87;;;8.60;99.90;;;;;;4987670;28;20451;-65
2022/02/04 10:49:08;;;;;;;3.10;2.40;;;8.60;99.90;;;;;;4964035;28;20588;-63
2022/02/04 10:51:51;;;;;;;3.40;3.10;;;8.50;99.90;;;;;;4979976;28;20789;-65
2022/02/04 10:55:26;;;;;;;5.20;2.73;;;8.30;99.90;;;;;;4982684;28;20994;-64
2022/02/04 10:58:11;;;;;;;2.60;2.40;;;8.20;99.90;;;;;;4975961;28;20485;-64
2022/02/04 11:03:26;;;;;;;4.00;2.90;;;8.40;99.90;;;;;;4980971;28;20469;-64
2022/02/04 11:06:50;;;;;;;3.57;3.20;;;8.20;99.90;;;;;;4979671;28;20443;-64
2022/02/04 11:35:59;;;;;;;3.00;2.27;;;8.40;99.90;;;;;;4973275;28;20416;-64
2022/02/04 11:51:03;;;;;;;1.83;1.70;;;8.60;99.90;;;;;;4969900;28;20469;-64
2022/02/04 11:56:20;;;;;;;2.03;1.80;;;8.30;99.90;;;;;;4953123;28;20427;-64
2022/02/04 11:59:02;;;;;;;2.43;2.10;;;8.20;99.90;;;;;;4954444;28;20432;-65
2022/02/04 12:01:44;;;;;;;1.77;1.67;;;8.00;99.90;;;;;;4989580;28;20294;-65
2022/02/04 12:04:20;;;;;;;1.53;1.43;;;7.90;99.90;;;;;;4992416;28;20434;-65
2022/02/04 12:06:46;;;;;;;1.33;1.23;;;7.90;99.90;;;;;;4992143;28;20418;-64
2022/02/04 12:09:14;;;;;;;2.17;1.97;;;7.90;99.90;;;;;;4989680;28;20477;-65
2022/02/04 12:11:40;;;;;;;2.00;1.90;;;7.90;99.90;;;;;;4975739;28;20515;-65
2022/02/04 12:14:10;;;;;;;3.33;1.40;;;8.10;99.90;;;;;;4972809;28;20466;-65
2022/02/04 12:16:56;;;;;;;1.80;1.70;;;8.30;99.90;;;;;;4971816;28;20434;-65
2022/02/04 12:19:35;;;;;;;2.07;1.87;;;8.40;99.90;;;;;;4969753;28;20510;-66
2022/02/04 12:22:01;;;;;;;2.00;1.80;;;8.50;99.90;;;;;;4972699;28;20503;-66
2022/02/04 12:24:31;;;;;;;1.90;1.60;;;8.40;99.90;;;;;;4968610;28;20476;-64
2022/02/04 12:27:29;;;;;;;2.20;2.00;;;8.40;99.90;;;;;;4971301;28;20188;-65
2022/02/04 12:29:56;;;;;;;1.80;1.63;;;8.40;99.90;;;;;;4967513;28;20467;-65
2022/02/04 12:32:21;;;;;;;1.80;1.70;;;8.20;99.90;;;;;;4973188;28;20894;-66
2022/02/04 12:34:48;;;;;;;1.90;1.80;;;8.10;99.90;;;;;;4972273;28;20470;-66
2022/02/04 12:37:19;;;;;;;2.07;1.77;;;8.10;99.90;;;;;;4973240;28;20176;-66
2022/02/04 12:39:46;;;;;;;2.30;1.90;;;8.00;99.90;;;;;;4967623;28;20442;-65
2022/02/04 12:42:13;;;;;;;2.13;1.70;;;8.00;99.90;;;;;;4982642;28;20449;-65
2022/02/04 12:44:41;;;;;;;1.63;1.53;;;8.00;99.90;;;;;;4983215;28;20455;-65
2022/02/04 12:47:10;;;;;;;4.40;2.20;;;8.00;99.90;;;;;;4983507;28;20438;-66
2022/02/04 12:49:47;;;;;;;1.67;1.50;;;7.90;99.90;;;;;;4973880;28;20463;-65
2022/02/04 12:52:18;;;;;;;2.27;1.80;;;8.00;99.90;;;;;;4983249;28;20432;-65
2022/02/04 12:54:50;;;;;;;2.13;1.50;;;8.00;99.90;;;;;;4970765;28;20463;-65
2022/02/04 13:08:16;;;;;;;3.00;1.63;;;8.90;99.90;;;;;;4980754;28;20458;-66
2022/02/04 13:10:42;;;;;;;2.97;2.47;;;8.70;99.90;;;;;;4969586;28;20482;-66
2022/02/04 13:13:14;;;;;;;3.20;2.90;;;8.50;99.90;;;;;;4977563;28;20468;-66
2022/02/04 13:15:42;;;;;;;1.77;1.67;;;8.40;99.90;;;;;;4987824;28;20794;-66
2022/02/04 13:18:13;;;;;;;1.63;1.53;;;8.30;99.90;;;;;;4975362;28;20563;-65
2022/02/04 13:20:42;;;;;;;1.90;1.80;;;8.20;99.90;;;;;;4980145;28;20445;-65
2022/02/04 13:23:11;;;;;;;2.73;2.40;;;8.20;99.90;;;;;;4981064;28;20571;-65
2022/02/04 13:25:48;;;;;;;1.80;1.70;;;8.10;99.90;;;;;;4978190;28;20558;-66
2022/02/04 13:28:22;;;;;;;2.53;2.33;;;8.10;99.90;;;;;;4975622;28;20477;-66
2022/02/04 13:30:49;;;;;;;1.40;1.30;;;8.00;99.90;;;;;;4978883;28;20837;-66
2022/02/04 13:33:17;;;;;;;2.10;1.80;;;7.90;99.90;;;;;;4978573;28;20965;-65
2022/02/04 13:35:56;;;;;;;2.37;2.00;;;7.90;99.90;;;;;;4975548;28;20965;-66
2022/02/04 13:38:32;;;;;;;2.13;1.63;;;8.00;99.90;;;;;;4977276;28;20494;-66
2022/02/04 13:43:39;;;;;;;6.40;1.90;;;7.90;99.90;;;;;;4983805;28;20549;-66
2022/02/04 13:51:51;;;;;;;1.83;1.73;;;8.00;99.90;;;;;;4980607;28;20974;-65
2022/02/04 13:56:57;;;;;;;1.97;1.77;;;8.10;99.90;;;;;;4973841;28;20462;-66
2022/02/04 13:59:57;;;;;;;2.30;1.87;;;8.00;99.90;;;;;;4972767;28;20534;-65
2022/02/04 14:02:26;;;;;;;3.40;1.67;;;7.90;99.90;;;;;;4973182;28;20443;-65
2022/02/04 14:04:57;;;;;;;1.83;1.73;;;7.80;99.90;;;;;;4975166;28;20483;-65
2022/02/04 14:07:38;;;;;;;1.87;1.77;;;7.70;99.90;;;;;;4977840;28;20474;-65
2022/02/04 14:10:21;;;;;;;2.30;1.80;;;7.70;99.90;;;;;;4978177;28;20474;-65
2022/02/04 14:13:00;;;;;;;2.57;2.00;;;7.70;99.90;;;;;;4976663;28;21282;-65
2022/02/04 14:15:30;;;;;;;1.70;1.60;;;7.70;99.90;;;;;;4971561;28;20462;-65
2022/02/04 14:17:59;;;;;;;5.47;2.30;;;7.70;99.90;;;;;;4974693;28;20471;-65
2022/02/04 14:20:24;;;;;;;2.80;1.80;;;7.80;99.90;;;;;;4977952;28;20940;-65
2022/02/04 14:22:50;;;;;;;2.70;2.10;;;7.70;99.90;;;;;;4970694;28;20474;-65
2022/02/04 14:25:16;;;;;;;1.77;1.67;;;7.60;99.90;;;;;;4983042;28;20262;-65
2022/02/04 14:27:44;;;;;;;1.70;1.60;;;7.60;99.90;;;;;;4973730;28;20207;-65
2022/02/04 14:30:17;;;;;;;2.10;1.90;;;7.60;99.90;;;;;;4971489;28;20196;-64
2022/02/04 14:32:54;;;;;;;1.97;1.70;;;7.60;99.90;;;;;;4972551;28;20977;-65
2022/02/04 15:01:53;;;;;;;4.00;1.90;;;7.60;99.90;;;;;;4978681;28;20450;-66
2022/02/04 15:04:35;;;;;;;1.20;1.10;;;7.60;99.90;;;;;;4979463;28;20885;-65
2022/02/04 15:07:02;;;;;;;1.90;1.40;;;7.60;99.90;;;;;;4979552;28;20496;-66
2022/02/04 15:09:29;;;;;;;1.57;1.30;;;7.70;99.90;;;;;;4971195;28;20888;-65
2022/02/04 15:11:55;;;;;;;1.40;1.30;;;7.60;99.90;;;;;;4972692;28;20815;-65
2022/02/04 15:14:21;;;;;;;1.07;0.97;;;7.60;99.90;;;;;;4976358;28;20467;-65
2022/02/04 15:16:47;;;;;;;1.50;0.80;;;7.60;99.90;;;;;;4973466;28;20190;-65
2022/02/04 15:19:13;;;;;;;1.30;1.20;;;7.60;99.90;;;;;;4979721;28;20438;-65
2022/02/04 15:21:43;;;;;;;1.10;1.00;;;7.60;99.90;;;;;;4979804;28;20191;-65
2022/02/04 15:24:10;;;;;;;2.10;1.00;;;7.50;99.90;;;;;;4971556;28;20550;-65
2022/02/04 15:26:36;;;;;;;1.23;1.17;;;7.50;99.90;;;;;;4970825;28;20451;-65
2022/02/04 15:29:07;;;;;;;1.40;1.30;;;7.40;99.90;;;;;;4972692;28;21067;-65
2022/02/04 15:31:45;;;;;;;2.23;1.77;;;7.40;99.90;;;;;;4973548;28;20914;-65
2022/02/04 15:34:13;;;;;;;5.33;1.27;;;7.40;99.90;;;;;;4974675;28;21056;-65
2022/02/04 15:36:42;;;;;;;0.83;0.80;;;7.40;99.90;;;;;;4976580;28;20482;-65
2022/02/04 15:39:11;;;;;;;2.20;1.53;;;7.40;99.90;;;;;;4973363;28;20476;-64
2022/02/04 15:41:39;;;;;;;1.20;0.93;;;7.50;99.90;;;;;;4970032;28;20527;-65
2022/02/04 15:47:17;;;;;;;1.20;1.10;;;7.50;99.90;;;;;;4967979;28;20799;-64
2022/02/04 15:52:38;;;;;;;1.00;0.93;;;7.50;99.90;;;;;;4973162;28;20446;-65
2022/02/04 15:57:42;;;;;;;1.20;0.80;;;7.40;99.90;;;;;;4974334;28;20922;-65
2022/02/04 16:00:36;;;;;;;1.73;0.90;;;7.30;99.90;;;;;;4973143;28;20442;-65
2022/02/04 16:05:43;;;;;;;4.60;2.20;;;7.20;99.90;;;;;;4976341;28;20431;-65
2022/02/04 16:08:12;;;;;;;1.83;1.70;;;7.20;99.90;;;;;;4971828;28;20819;-65
2022/02/04 16:11:08;;;;;;;2.07;1.47;;;7.20;99.90;;;;;;4969387;28;20495;-64
2022/02/04 16:14:11;;;;;;;2.83;1.50;;;7.20;99.90;;;;;;4973169;28;20451;-65
2022/02/04 16:18:56;;;;;;;2.33;1.20;;;7.20;99.90;;;;;;4969550;28;20469;-65
2022/02/04 16:21:32;;;;;;;1.07;0.97;;;7.20;99.90;;;;;;4975520;28;20865;-64
2022/02/04 16:24:17;;;;;;;1.10;1.00;;;7.10;99.90;;;;;;4985489;28;20450;-64
2022/02/04 16:29:11;;;;;;;1.10;1.00;;;7.10;99.90;;;;;;4974847;28;20467;-64
2022/02/04 16:31:37;;;;;;;1.40;1.30;;;7.00;99.90;;;;;;4978877;28;20443;-65
2022/02/04 16:34:08;;;;;;;2.60;1.60;;;7.00;99.90;;;;;;4973909;28;20204;-64
2022/02/04 16:36:37;;;;;;;1.20;1.10;;;7.00;99.90;;;;;;4972544;28;20316;-65
2022/02/04 16:39:03;;;;;;;0.97;0.90;;;7.00;99.90;;;;;;4969415;28;20455;-65
2022/02/04 16:41:33;;;;;;;2.30;0.97;;;7.00;99.90;;;;;;4972245;28;20432;-65
2022/02/04 16:44:00;;;;;;;2.00;1.30;;;7.00;99.90;;;;;;4974781;28;20456;-65
2022/02/04 16:46:26;;;;;;;1.50;1.23;;;7.00;99.90;;;;;;4978505;28;20443;-65
2022/02/04 16:48:51;;;;;;;3.93;2.27;;;7.00;99.90;;;;;;4980663;28;21256;-65
2022/02/04 16:51:17;;;;;;;3.20;2.17;;;7.00;99.90;;;;;;4975650;28;20431;-65
2022/02/04 16:53:43;;;;;;;2.60;1.87;;;6.90;99.90;;;;;;4977964;28;20200;-65
2022/02/04 16:56:09;;;;;;;0.90;0.90;;;6.90;99.90;;;;;;4976806;28;20287;-65
2022/02/04 16:58:35;;;;;;;1.10;1.00;;;6.90;99.90;;;;;;4974764;28;20550;-64
2022/02/04 17:01:01;;;;;;;1.10;1.10;;;6.90;99.90;;;;;;4974680;28;20180;-65
2022/02/04 17:03:26;;;;;;;5.93;1.50;;;6.90;99.90;;;;;;4988820;28;20579;-65
2022/02/04 17:05:55;;;;;;;1.50;1.20;;;6.90;99.90;;;;;;4991004;28;20443;-66
2022/02/04 17:08:32;;;;;;;2.97;1.40;;;6.90;99.90;;;;;;4986765;28;20268;-65
2022/02/04 17:11:01;;;;;;;1.67;0.67;;;6.90;99.90;;;;;;4980692;28;20475;-64
2022/02/04 17:13:28;;;;;;;1.23;1.13;;;6.90;99.90;;;;;;4988694;28;20529;-65
2022/02/04 17:15:54;;;;;;;1.83;1.50;;;6.90;99.90;;;;;;4976721;28;20869;-65
2022/02/04 17:18:19;;;;;;;0.83;0.83;;;6.90;99.90;;;;;;4991002;28;20474;-65
2022/02/04 17:20:47;;;;;;;1.10;1.00;;;6.90;99.90;;;;;;4962980;28;20203;-65
2022/02/04 17:23:15;;;;;;;3.93;2.30;;;6.90;99.90;;;;;;4993485;28;20207;-65
2022/02/04 17:25:43;;;;;;;4.80;1.10;;;6.90;99.90;;;;;;4976301;28;20991;-64
2022/02/04 17:28:08;;;;;;;1.90;0.90;;;6.90;99.90;;;;;;4984393;28;20523;-65
2022/02/04 17:30:34;;;;;;;0.83;0.83;;;6.90;99.90;;;;;;4979240;28;20471;-65
2022/02/04 17:33:00;;;;;;;1.13;0.90;;;6.90;99.90;;;;;;4975139;28;20682;-65
2022/02/04 17:35:27;;;;;;;2.30;1.50;;;6.90;99.90;;;;;;4979561;28;20184;-66
2022/02/04 17:37:56;;;;;;;2.10;1.10;;;6.90;99.90;;;;;;4975435;28;20965;-64
2022/02/04 17:40:23;;;;;;;1.17;1.00;;;6.90;99.90;;;;;;4980552;28;20988;-65
2022/02/04 17:42:49;;;;;;;0.73;0.67;;;7.00;99.90;;;;;;4975391;28;20459;-65
2022/02/04 17:45:18;;;;;;;1.53;1.10;;;7.00;99.90;;;;;;4981882;28;20449;-64
2022/02/04 17:47:52;;;;;;;1.13;1.03;;;7.00;99.90;;;;;;5001336;28;20195;-65
2022/02/04 17:50:25;;;;;;;1.80;1.00;;;6.90;99.90;;;;;;4992063;28;20533;-65
2022/02/04 17:52:58;;;;;;;1.40;1.20;;;6.90;99.90;;;;;;4979781;28;20447;-65
2022/02/04 17:55:31;;;;;;;0.97;0.97;;;6.90;99.90;;;;;;4981287;28;20439;-65
2022/02/04 17:58:09;;;;;;;1.20;1.10;;;6.90;99.90;;;;;;4982982;28;20431;-65
2022/02/04 18:06:01;;;;;;;1.57;1.47;;;6.90;99.90;;;;;;4977093;28;20431;-64
2022/02/04 18:08:26;;;;;;;2.13;1.40;;;6.90;99.90;;;;;;4970057;28;20611;-67
2022/02/04 18:10:53;;;;;;;1.40;1.30;;;6.80;99.90;;;;;;4982045;28;20455;-65
2022/02/04 18:13:19;;;;;;;1.97;1.63;;;6.90;99.90;;;;;;4978275;28;20578;-71
2022/02/04 18:15:46;;;;;;;3.67;1.47;;;6.80;99.90;;;;;;4976426;28;20443;-65
2022/02/04 18:18:16;;;;;;;3.23;1.90;;;6.80;99.90;;;;;;4977259;28;20210;-64
2022/02/04 18:20:42;;;;;;;1.50;1.40;;;6.80;99.90;;;;;;4978967;28;20874;-65
2022/02/04 18:23:08;;;;;;;2.10;1.77;;;6.80;99.90;;;;;;4976584;28;20455;-64
2022/02/04 18:25:35;;;;;;;1.23;1.13;;;6.70;99.90;;;;;;4987531;28;20453;-64
2022/02/04 18:28:01;;;;;;;1.00;0.90;;;6.80;99.90;;;;;;4983289;28;21013;-65
2022/02/04 18:30:34;;;;;;;4.60;2.93;;;6.80;99.90;;;;;;4975912;28;20475;-64
2022/02/04 18:33:00;;;;;;;1.30;1.13;;;6.80;99.90;;;;;;4989757;28;20451;-65
2022/02/04 18:35:26;;;;;;;1.77;1.10;;;6.80;99.90;;;;;;4975808;28;20435;-64
2022/02/04 18:38:04;;;;;;;1.20;1.03;;;6.80;99.90;;;;;;4984665;28;20438;-64
2022/02/04 18:40:53;;;;;;;1.10;1.00;;;6.80;99.90;;;;;;4981217;28;20198;-64
2022/02/04 18:45:51;;;;;;;1.30;1.20;;;6.60;99.90;;;;;;4990498;28;20787;-64
2022/02/04 18:48:21;;;;;;;2.33;1.63;;;6.60;99.90;;;;;;4979123;28;20447;-64
2022/02/04 18:58:26;;;;;;;3.03;1.70;;;6.60;99.90;;;;;;4975259;28;20430;-64
2022/02/04 19:00:54;;;;;;;3.43;1.67;;;6.70;99.90;;;;;;4990222;28;20422;-65
2022/02/04 19:03:25;;;;;;;1.80;1.40;;;6.60;99.90;;;;;;4979220;28;20474;-64
2022/02/04 19:08:41;;;;;;;1.60;1.50;;;6.70;99.90;;;;;;4982384;28;20447;-65
2022/02/04 19:11:07;;;;;;;1.43;1.33;;;6.60;99.90;;;;;;4975134;28;20498;-65
2022/02/04 19:13:44;;;;;;;2.30;2.10;;;6.60;99.90;;;;;;4984669;28;20546;-65